Time;durP1;ratioP1;P1;durP2;ratioP2;P2;SDS_P1;SDS_P2;PMS_P1;PMS_P2;Temp;Humidity;BMP_temperature;BMP_pressure;BME280_temperature;BME280_humidity;BME280_pressure;Samples;Min_cycle;Max_cycle;Signal;HPM_P1;HPM_P2
2024/03/31 00:00:46;;;;;;;66.07;8.50;;;;;;;;;;5062185;28;20052;-84
2024/03/31 00:03:38;;;;;;;51.40;6.50;;;;;;;;;;5064019;28;20044;-83
2024/03/31 00:06:27;;;;;;;45.42;7.32;;;;;;;;;;5049572;28;20048;-85
2024/03/31 00:09:17;;;;;;;46.20;7.65;;;;;;;;;;5088140;28;20033;-83
2024/03/31 00:12:08;;;;;;;46.95;7.57;;;;;;;;;;5076866;28;20032;-84
2024/03/31 00:14:58;;;;;;;45.65;7.57;;;;;;;;;;5073505;28;20483;-87
2024/03/31 00:17:49;;;;;;;46.08;7.32;;;;;;;;;;5059396;28;20501;-84
2024/03/31 00:20:39;;;;;;;42.42;8.65;;;;;;;;;;5060690;28;20025;-84
2024/03/31 00:23:31;;;;;;;41.95;7.93;;;;;;;;;;5065188;28;20033;-85
2024/03/31 00:26:23;;;;;;;47.80;7.63;;;;;;;;;;5080942;28;20048;-86
2024/03/31 00:29:16;;;;;;;54.70;7.32;;;;;;;;;;5059602;28;20534;-82
2024/03/31 00:32:08;;;;;;;49.92;8.27;;;;;;;;;;5060896;28;20033;-84
2024/03/31 00:35:00;;;;;;;47.22;6.75;;;;;;;;;;5066847;28;20033;-84
2024/03/31 00:37:49;;;;;;;35.58;5.70;;;;;;;;;;5063785;28;20807;-84
2024/03/31 00:40:41;;;;;;;66.13;8.95;;;;;;;;;;5050376;28;20029;-83
2024/03/31 00:43:33;;;;;;;58.00;7.78;;;;;;;;;;5061679;28;20041;-83
2024/03/31 00:46:25;;;;;;;70.85;8.07;;;;;;;;;;5068060;28;20055;-86
2024/03/31 00:49:17;;;;;;;49.55;7.82;;;;;;;;;;5076531;28;20029;-84
2024/03/31 00:52:09;;;;;;;36.75;6.45;;;;;;;;;;5062481;28;20037;-83
2024/03/31 00:55:06;;;;;;;46.13;5.90;;;;;;;;;;5059122;28;20036;-86
2024/03/31 00:57:56;;;;;;;28.13;6.53;;;;;;;;;;5069384;28;20029;-84
2024/03/31 01:00:47;;;;;;;43.75;6.22;;;;;;;;;;5054802;28;20037;-85
2024/03/31 01:03:37;;;;;;;41.92;7.88;;;;;;;;;;5055458;28;20029;-82
2024/03/31 01:06:29;;;;;;;48.58;7.90;;;;;;;;;;5037796;28;20037;-82
2024/03/31 01:09:18;;;;;;;49.10;8.27;;;;;;;;;;5068199;28;20025;-85
2024/03/31 01:12:08;;;;;;;35.67;6.68;;;;;;;;;;5060404;28;20505;-83
2024/03/31 01:15:00;;;;;;;30.92;6.60;;;;;;;;;;5055767;28;20037;-85
2024/03/31 01:17:52;;;;;;;37.17;6.45;;;;;;;;;;5061666;28;20505;-83
2024/03/31 01:20:41;;;;;;;40.75;6.82;;;;;;;;;;5055465;28;20038;-86
2024/03/31 01:23:33;;;;;;;41.92;6.82;;;;;;;;;;5071287;28;20389;-84
2024/03/31 01:26:24;;;;;;;32.17;6.32;;;;;;;;;;5070169;28;20064;-85
2024/03/31 01:29:11;;;;;;;33.33;5.38;;;;;;;;;;5070390;28;20041;-82
2024/03/31 01:32:03;;;;;;;39.22;6.53;;;;;;;;;;5062040;28;20033;-82
2024/03/31 01:34:55;;;;;;;37.53;5.82;;;;;;;;;;5059473;28;20029;-83
2024/03/31 01:37:50;;;;;;;45.65;7.55;;;;;;;;;;5072083;28;20036;-85
2024/03/31 01:40:41;;;;;;;43.88;5.55;;;;;;;;;;5060786;28;20406;-85
2024/03/31 01:43:37;;;;;;;32.40;5.85;;;;;;;;;;5056599;28;20054;-85
2024/03/31 01:46:26;;;;;;;33.70;5.00;;;;;;;;;;5053561;28;20040;-85
2024/03/31 01:49:15;;;;;;;42.55;5.97;;;;;;;;;;5059342;28;20046;-84
2024/03/31 01:52:07;;;;;;;37.90;5.57;;;;;;;;;;5060102;28;20560;-85
2024/03/31 01:54:59;;;;;;;29.02;5.40;;;;;;;;;;5074947;28;20037;-85
2024/03/31 01:57:51;;;;;;;37.55;5.35;;;;;;;;;;5079250;28;20036;-83
2024/03/31 02:00:43;;;;;;;30.15;4.50;;;;;;;;;;5075793;28;20037;-84
2024/03/31 02:03:35;;;;;;;19.58;4.22;;;;;;;;;;5078878;28;20036;-85
2024/03/31 02:06:27;;;;;;;36.60;5.03;;;;;;;;;;5064901;28;20041;-83
2024/03/31 02:09:18;;;;;;;35.50;5.65;;;;;;;;;;5058509;28;20029;-83
2024/03/31 02:12:10;;;;;;;26.30;5.00;;;;;;;;;;5068008;28;20037;-84
2024/03/31 02:15:00;;;;;;;27.88;4.80;;;;;;;;;;5093614;28;20033;-83
2024/03/31 02:17:51;;;;;;;32.38;5.40;;;;;;;;;;5078467;28;20047;-85
2024/03/31 02:20:43;;;;;;;27.75;4.40;;;;;;;;;;5078297;28;20160;-85
2024/03/31 02:23:35;;;;;;;27.90;4.78;;;;;;;;;;5072589;28;20033;-83
2024/03/31 02:26:27;;;;;;;36.78;4.55;;;;;;;;;;5075567;28;20037;-84
2024/03/31 02:29:19;;;;;;;25.85;3.78;;;;;;;;;;5079143;28;20040;-84
2024/03/31 02:32:06;;;;;;;33.80;4.45;;;;;;;;;;5072329;28;20405;-84
2024/03/31 02:34:56;;;;;;;27.00;4.50;;;;;;;;;;5080423;28;20037;-83
2024/03/31 02:37:47;;;;;;;27.65;4.38;;;;;;;;;;5069053;28;20036;-85
2024/03/31 02:40:39;;;;;;;33.28;5.60;;;;;;;;;;5076022;28;20040;-85
2024/03/31 02:43:29;;;;;;;39.47;6.88;;;;;;;;;;5073322;28;20048;-85
2024/03/31 02:46:20;;;;;;;46.38;5.45;;;;;;;;;;5066523;28;20046;-86
2024/03/31 02:49:12;;;;;;;37.80;6.32;;;;;;;;;;5069311;28;20036;-85
2024/03/31 02:52:04;;;;;;;46.20;6.45;;;;;;;;;;5087886;28;20051;-84
2024/03/31 02:54:53;;;;;;;37.00;5.28;;;;;;;;;;5080672;28;20412;-84
2024/03/31 02:57:48;;;;;;;26.55;4.60;;;;;;;;;;5046855;28;20041;-86
2024/03/31 03:00:37;;;;;;;38.83;5.53;;;;;;;;;;5076355;28;20040;-84
2024/03/31 03:03:27;;;;;;;42.60;6.03;;;;;;;;;;5068676;28;20037;-83
2024/03/31 03:06:19;;;;;;;37.88;5.00;;;;;;;;;;5092897;28;20048;-83
2024/03/31 03:09:11;;;;;;;36.95;4.40;;;;;;;;;;5091674;28;20028;-84
2024/03/31 03:12:03;;;;;;;26.45;4.63;;;;;;;;;;5065335;28;20029;-83
2024/03/31 03:14:55;;;;;;;29.02;4.60;;;;;;;;;;5061470;28;20032;-83
2024/03/31 03:17:50;;;;;;;34.08;4.75;;;;;;;;;;5066412;28;20037;-83
2024/03/31 03:20:40;;;;;;;;;;;;;;;;;;5050487;28;20042;-83
2024/03/31 03:23:31;;;;;;;24.45;5.65;;;;;;;;;;5056403;28;19915;-84
2024/03/31 03:26:23;;;;;;;29.20;4.00;;;;;;;;;;5058885;28;20033;-82
2024/03/31 03:29:15;;;;;;;26.73;4.60;;;;;;;;;;5079902;28;20033;-85
2024/03/31 03:32:07;;;;;;;27.13;3.63;;;;;;;;;;5084726;28;20033;-84
2024/03/31 03:34:58;;;;;;;23.25;3.83;;;;;;;;;;5067517;28;20041;-84
2024/03/31 03:37:48;;;;;;;40.90;7.63;;;;;;;;;;5056003;28;20032;-83
2024/03/31 03:40:40;;;;;;;17.25;5.00;;;;;;;;;;5081524;28;20032;-84
2024/03/31 03:43:32;;;;;;;26.60;4.38;;;;;;;;;;5084314;28;20029;-83
2024/03/31 03:46:25;;;;;;;27.67;5.20;;;;;;;;;;5058683;28;20037;-85
2024/03/31 03:49:17;;;;;;;25.83;5.28;;;;;;;;;;5061646;28;20037;-82
2024/03/31 03:52:09;;;;;;;35.15;4.25;;;;;;;;;;5081712;28;20028;-84
2024/03/31 03:55:00;;;;;;;20.98;3.88;;;;;;;;;;5082558;28;20033;-82
2024/03/31 03:57:52;;;;;;;28.67;4.82;;;;;;;;;;5081724;28;20036;-82
2024/03/31 04:00:44;;;;;;;25.92;4.05;;;;;;;;;;5079115;28;20040;-83
2024/03/31 04:03:38;;;;;;;21.90;4.82;;;;;;;;;;5081778;28;20049;-85
2024/03/31 04:06:28;;;;;;;32.85;3.65;;;;;;;;;;5078425;28;20033;-84
2024/03/31 04:09:19;;;;;;;23.02;4.63;;;;;;;;;;5075043;28;20698;-85
2024/03/31 04:12:11;;;;;;;23.73;3.90;;;;;;;;;;5060480;28;20394;-85
2024/03/31 04:15:03;;;;;;;25.23;5.10;;;;;;;;;;5063256;28;20033;-85
2024/03/31 04:17:55;;;;;;;21.08;4.00;;;;;;;;;;5060981;28;20033;-84
2024/03/31 04:20:45;;;;;;;22.52;5.57;;;;;;;;;;5054018;28;20044;-83
2024/03/31 04:23:34;;;;;;;20.05;4.25;;;;;;;;;;5060911;28;20403;-83
2024/03/31 04:26:26;;;;;;;25.10;4.50;;;;;;;;;;5057586;28;20418;-85
2024/03/31 04:29:15;;;;;;;25.15;3.30;;;;;;;;;;5078093;28;20060;-82
2024/03/31 04:32:07;;;;;;;20.80;3.78;;;;;;;;;;5073880;28;20036;-82
2024/03/31 04:35:00;;;;;;;26.17;5.47;;;;;;;;;;5059677;28;20494;-84
2024/03/31 04:37:52;;;;;;;21.33;3.92;;;;;;;;;;5047066;28;20048;-83
2024/03/31 04:40:44;;;;;;;22.00;4.45;;;;;;;;;;5074190;28;20039;-84
2024/03/31 04:43:34;;;;;;;19.27;4.85;;;;;;;;;;5074084;28;20599;-84
2024/03/31 04:46:26;;;;;;;17.38;4.15;;;;;;;;;;5056759;28;20040;-84
2024/03/31 04:49:18;;;;;;;21.92;2.97;;;;;;;;;;5059728;28;20037;-83
2024/03/31 04:52:10;;;;;;;25.85;3.78;;;;;;;;;;5066626;28;20044;-84
2024/03/31 04:55:02;;;;;;;20.98;3.72;;;;;;;;;;5062791;28;20040;-82
2024/03/31 04:57:54;;;;;;;24.50;3.88;;;;;;;;;;5074566;28;20718;-83
2024/03/31 05:00:44;;;;;;;16.27;3.13;;;;;;;;;;5080572;28;20048;-84
2024/03/31 05:03:36;;;;;;;20.75;3.38;;;;;;;;;;5064308;28;20036;-85
2024/03/31 05:06:28;;;;;;;31.67;5.65;;;;;;;;;;5077298;28;20044;-82
2024/03/31 05:09:20;;;;;;;16.42;3.50;;;;;;;;;;5064041;28;20044;-83
2024/03/31 05:12:12;;;;;;;18.00;4.38;;;;;;;;;;5064206;28;20040;-85
2024/03/31 05:15:04;;;;;;;18.48;3.38;;;;;;;;;;5088692;28;20048;-83
2024/03/31 05:17:56;;;;;;;22.38;3.05;;;;;;;;;;5058756;28;20686;-83
2024/03/31 05:20:53;;;;;;;10.82;2.63;;;;;;;;;;5062165;28;20032;-82
2024/03/31 05:23:42;;;;;;;22.15;4.20;;;;;;;;;;5078358;28;20051;-85
2024/03/31 05:26:33;;;;;;;14.45;3.45;;;;;;;;;;5056420;28;20044;-83
2024/03/31 05:29:25;;;;;;;19.65;2.65;;;;;;;;;;5077153;28;20043;-85
2024/03/31 05:32:17;;;;;;;16.58;4.05;;;;;;;;;;5079598;28;20037;-84
2024/03/31 05:35:09;;;;;;;16.90;4.00;;;;;;;;;;5077519;28;20045;-82
2024/03/31 05:38:01;;;;;;;30.58;3.88;;;;;;;;;;5076633;28;20032;-83
2024/03/31 05:40:53;;;;;;;24.40;3.42;;;;;;;;;;5079254;28;20047;-83
2024/03/31 05:43:45;;;;;;;27.23;4.05;;;;;;;;;;5083933;28;20037;-83
2024/03/31 05:46:34;;;;;;;19.38;3.75;;;;;;;;;;5080659;28;20040;-84
2024/03/31 05:49:26;;;;;;;27.30;3.25;;;;;;;;;;5080191;28;20040;-84
2024/03/31 05:52:18;;;;;;;18.67;3.47;;;;;;;;;;5056375;28;20048;-86
2024/03/31 05:55:10;;;;;;;14.63;3.55;;;;;;;;;;5094289;28;20040;-82
2024/03/31 05:58:02;;;;;;;19.00;4.05;;;;;;;;;;5077946;28;20055;-86
2024/03/31 06:00:54;;;;;;;24.83;4.50;;;;;;;;;;5064067;28;20048;-87
2024/03/31 06:03:47;;;;;;;19.05;4.20;;;;;;;;;;5061280;28;20037;-83
2024/03/31 06:06:39;;;;;;;19.80;2.65;;;;;;;;;;5036936;28;20525;-83
2024/03/31 06:09:31;;;;;;;25.45;3.72;;;;;;;;;;5047811;28;20064;-85
2024/03/31 06:12:23;;;;;;;19.83;3.63;;;;;;;;;;5058969;28;20036;-83
2024/03/31 06:15:12;;;;;;;19.80;3.78;;;;;;;;;;5058329;28;20040;-86
2024/03/31 06:18:04;;;;;;;20.25;3.92;;;;;;;;;;5053592;28;20048;-85
2024/03/31 06:20:54;;;;;;;29.20;4.25;;;;;;;;;;5059461;28;20044;-84
2024/03/31 06:23:45;;;;;;;22.70;4.07;;;;;;;;;;5073085;28;20036;-84
2024/03/31 06:26:37;;;;;;;26.60;3.50;;;;;;;;;;5052677;28;20511;-84
2024/03/31 06:29:29;;;;;;;20.13;3.92;;;;;;;;;;5051901;28;20033;-87
2024/03/31 06:32:21;;;;;;;24.35;2.40;;;;;;;;;;5066396;28;20056;-86
2024/03/31 06:35:12;;;;;;;18.27;2.53;;;;;;;;;;5058031;28;20040;-82
2024/03/31 06:38:04;;;;;;;23.02;3.35;;;;;;;;;;5055876;28;20044;-86
2024/03/31 06:40:56;;;;;;;17.15;3.58;;;;;;;;;;5053806;28;20040;-83
2024/03/31 06:43:45;;;;;;;21.65;3.50;;;;;;;;;;5052743;28;20056;-81
2024/03/31 06:46:37;;;;;;;13.07;3.33;;;;;;;;;;5055958;28;20037;-84
2024/03/31 06:49:29;;;;;;;31.65;3.85;;;;;;;;;;5056068;28;20391;-86
2024/03/31 06:52:21;;;;;;;19.55;3.65;;;;;;;;;;5076832;28;20032;-83
2024/03/31 06:55:13;;;;;;;27.02;4.63;;;;;;;;;;5061528;28;20033;-85
2024/03/31 06:58:04;;;;;;;28.58;3.72;;;;;;;;;;5061803;28;20041;-83
2024/03/31 07:00:59;;;;;;;20.08;4.10;;;;;;;;;;5065296;28;20041;-82
2024/03/31 07:03:51;;;;;;;13.93;3.22;;;;;;;;;;5055354;28;20045;-82
2024/03/31 07:06:43;;;;;;;24.83;3.05;;;;;;;;;;5056072;28;20046;-81
2024/03/31 07:09:32;;;;;;;27.02;4.95;;;;;;;;;;5047510;28;20033;-83
2024/03/31 07:12:24;;;;;;;29.25;3.55;;;;;;;;;;5071586;28;20168;-84
2024/03/31 07:15:16;;;;;;;26.38;4.10;;;;;;;;;;5075767;28;20033;-85
2024/03/31 07:18:08;;;;;;;20.08;4.25;;;;;;;;;;5077927;28;20559;-87
2024/03/31 07:20:57;;;;;;;24.83;4.93;;;;;;;;;;5088106;28;20036;-84
2024/03/31 07:23:49;;;;;;;24.13;4.18;;;;;;;;;;5067867;28;20408;-85
2024/03/31 07:26:41;;;;;;;16.77;2.58;;;;;;;;;;5059392;28;20033;-84
2024/03/31 07:29:33;;;;;;;20.95;3.15;;;;;;;;;;5061451;28;20037;-84
2024/03/31 07:32:25;;;;;;;15.25;3.08;;;;;;;;;;5057503;28;20036;-84
2024/03/31 07:35:15;;;;;;;24.42;3.95;;;;;;;;;;5061102;28;20033;-86
2024/03/31 07:38:04;;;;;;;26.75;4.20;;;;;;;;;;5061570;28;20033;-84
2024/03/31 07:40:56;;;;;;;22.58;3.70;;;;;;;;;;5066047;28;20048;-86
2024/03/31 07:43:43;;;;;;;25.05;2.90;;;;;;;;;;5042156;28;20037;-83
2024/03/31 07:46:35;;;;;;;18.95;3.20;;;;;;;;;;5038867;28;20068;-84
2024/03/31 07:49:27;;;;;;;31.38;4.43;;;;;;;;;;5042128;28;20553;-82
2024/03/31 07:52:18;;;;;;;31.40;8.35;;;;;;;;;;5040993;28;20402;-83
2024/03/31 07:55:10;;;;;;;43.30;9.18;;;;;;;;;;5044083;28;20034;-82
2024/03/31 07:57:57;;;;;;;27.08;6.07;;;;;;;;;;5073246;28;20051;-82
2024/03/31 08:00:49;;;;;;;34.92;7.55;;;;;;;;;;5067619;28;20045;-85
2024/03/31 08:03:41;;;;;;;30.67;7.43;;;;;;;;;;5071753;28;20041;-85
2024/03/31 08:06:30;;;;;;;49.85;12.95;;;;;;;;;;5069211;28;20041;-83
2024/03/31 08:09:17;;;;;;;51.08;10.05;;;;;;;;;;5065020;28;20044;-84
2024/03/31 08:12:09;;;;;;;36.85;8.95;;;;;;;;;;5068590;28;20044;-84
2024/03/31 08:14:59;;;;;;;50.92;5.68;;;;;;;;;;5065065;28;20033;-85
2024/03/31 08:17:55;;;;;;;37.03;7.65;;;;;;;;;;5060724;28;20398;-83
2024/03/31 08:20:46;;;;;;;40.80;7.35;;;;;;;;;;5064468;28;20056;-83
2024/03/31 08:23:38;;;;;;;45.03;7.43;;;;;;;;;;5061107;28;20029;-84
2024/03/31 08:26:28;;;;;;;26.67;5.03;;;;;;;;;;5058566;28;20048;-84
2024/03/31 08:29:20;;;;;;;38.30;5.65;;;;;;;;;;5063453;28;20036;-84
2024/03/31 08:32:12;;;;;;;33.67;6.80;;;;;;;;;;5056795;28;20033;-82
2024/03/31 08:35:01;;;;;;;54.72;10.45;;;;;;;;;;5055118;28;20037;-80
2024/03/31 08:37:53;;;;;;;50.60;6.70;;;;;;;;;;5057240;28;20044;-82
2024/03/31 08:40:44;;;;;;;52.78;7.07;;;;;;;;;;5054410;28;20423;-81
2024/03/31 08:43:37;;;;;;;41.75;7.55;;;;;;;;;;5064107;28;20040;-83
2024/03/31 08:46:26;;;;;;;59.33;12.25;;;;;;;;;;5063296;28;20051;-82
2024/03/31 08:49:18;;;;;;;54.55;12.60;;;;;;;;;;5064474;28;20410;-83
2024/03/31 08:52:08;;;;;;;81.97;25.08;;;;;;;;;;5062503;28;20040;-83
2024/03/31 08:54:58;;;;;;;56.08;12.27;;;;;;;;;;5059971;28;20039;-85
2024/03/31 08:57:48;;;;;;;59.00;12.15;;;;;;;;;;5057223;28;20044;-82
2024/03/31 09:00:41;;;;;;;74.88;20.08;;;;;;;;;;5060084;28;20135;-82
2024/03/31 09:03:31;;;;;;;59.95;11.27;;;;;;;;;;5058033;28;20048;-85
2024/03/31 09:06:23;;;;;;;86.18;12.52;;;;;;;;;;5047418;28;20035;-81
2024/03/31 09:09:12;;;;;;;70.70;15.38;;;;;;;;;;5050053;28;20048;-80
2024/03/31 09:12:02;;;;;;;;;;;;;;;;;;5044947;28;20040;-81
2024/03/31 09:14:53;;;;;;;70.63;11.75;;;;;;;;;;5043538;28;22502;-83
2024/03/31 09:17:45;;;;;;;60.30;13.18;;;;;;;;;;5041260;28;20043;-80
2024/03/31 09:20:37;;;;;;;81.38;26.00;;;;;;;;;;5055726;28;20044;-81
2024/03/31 09:23:29;;;;;;;74.28;20.27;;;;;;;;;;5058661;28;20044;-81
2024/03/31 09:26:20;;;;;;;73.18;13.82;;;;;;;;;;5056570;28;20052;-79
2024/03/31 09:29:11;;;;;;;79.50;14.20;;;;;;;;;;5060230;28;20044;-80
2024/03/31 09:32:13;;;;;;;75.10;14.00;;;;;;;;;;5058246;28;20044;-79
2024/03/31 09:35:03;;;;;;;75.80;20.83;;;;;;;;;;5056089;28;20055;-78
2024/03/31 09:37:53;;;;;;;76.10;15.35;;;;;;;;;;5061290;28;20061;-82
2024/03/31 09:40:45;;;;;;;75.43;16.23;;;;;;;;;;5043441;28;20040;-80
2024/03/31 09:43:37;;;;;;;84.53;28.50;;;;;;;;;;5059823;28;20410;-83
2024/03/31 09:46:27;;;;;;;55.45;14.23;;;;;;;;;;5056459;28;20063;-81
2024/03/31 09:49:23;;;;;;;126.15;27.05;;;;;;;;;;5053303;28;20044;-81
2024/03/31 09:52:17;;;;;;;103.45;22.23;;;;;;;;;;5054897;28;20060;-81
2024/03/31 09:55:13;;;;;;;146.40;37.40;;;;;;;;;;5054886;28;20048;-79
2024/03/31 09:58:06;;;;;;;79.57;17.65;;;;;;;;;;5046239;28;20056;-80
2024/03/31 10:00:58;;;;;;;66.95;12.20;;;;;;;;;;5049431;28;20071;-80
2024/03/31 10:03:54;;;;;;;76.72;11.88;;;;;;;;;;5046712;28;20053;-82
2024/03/31 10:06:41;;;;;;;67.25;11.07;;;;;;;;;;5041343;28;20043;-80
2024/03/31 10:09:30;;;;;;;68.25;11.40;;;;;;;;;;5054621;28;20067;-81
2024/03/31 10:12:22;;;;;;;67.07;9.27;;;;;;;;;;5049540;28;20044;-80
2024/03/31 10:15:14;;;;;;;66.40;9.60;;;;;;;;;;5055432;28;20029;-80
2024/03/31 10:18:05;;;;;;;67.60;10.05;;;;;;;;;;5049960;28;20410;-83
2024/03/31 10:20:57;;;;;;;64.10;8.65;;;;;;;;;;5051936;28;20048;-79
2024/03/31 10:23:48;;;;;;;70.53;10.15;;;;;;;;;;5057866;28;20045;-79
2024/03/31 10:26:38;;;;;;;55.08;8.68;;;;;;;;;;5053850;28;20044;-82
2024/03/31 10:29:30;;;;;;;68.70;9.43;;;;;;;;;;5047627;28;20040;-84
2024/03/31 10:32:22;;;;;;;68.85;9.48;;;;;;;;;;5059235;28;20506;-85
2024/03/31 10:35:14;;;;;;;66.22;8.75;;;;;;;;;;5054047;28;20700;-83
2024/03/31 10:38:06;;;;;;;60.25;9.18;;;;;;;;;;5065642;28;20052;-83
2024/03/31 10:40:55;;;;;;;53.97;8.00;;;;;;;;;;5058671;28;20037;-84
2024/03/31 10:43:47;;;;;;;55.30;8.75;;;;;;;;;;5059116;28;20375;-83
2024/03/31 10:46:37;;;;;;;60.78;7.70;;;;;;;;;;5061033;28;20688;-82
2024/03/31 10:49:37;;;;;;;51.95;9.63;;;;;;;;;;5061056;28;20032;-84
2024/03/31 10:52:26;;;;;;;67.28;8.93;;;;;;;;;;5061885;28;20743;-80
2024/03/31 10:55:17;;;;;;;47.50;8.63;;;;;;;;;;5061134;28;20033;-81
2024/03/31 10:58:12;;;;;;;69.47;10.68;;;;;;;;;;5059244;28;20048;-82
2024/03/31 11:01:07;;;;;;;52.95;6.80;;;;;;;;;;5060964;28;20052;-80
2024/03/31 11:03:58;;;;;;;68.85;8.75;;;;;;;;;;5061877;28;20040;-84
2024/03/31 11:06:50;;;;;;;60.78;9.70;;;;;;;;;;5059436;28;20049;-82
2024/03/31 11:09:43;;;;;;;61.33;9.75;;;;;;;;;;5064616;28;20041;-82
2024/03/31 11:12:33;;;;;;;65.32;9.95;;;;;;;;;;5058697;28;20040;-83
2024/03/31 11:15:22;;;;;;;60.92;10.73;;;;;;;;;;5061873;28;20521;-84
2024/03/31 11:18:13;;;;;;;41.60;6.78;;;;;;;;;;5066889;28;20044;-85
2024/03/31 11:21:14;;;;;;;63.38;8.32;;;;;;;;;;5063874;28;20040;-85
2024/03/31 11:24:04;;;;;;;56.95;12.45;;;;;;;;;;5063663;28;20047;-87
2024/03/31 11:26:51;;;;;;;67.88;10.25;;;;;;;;;;5059380;28;20052;-84
2024/03/31 11:29:43;;;;;;;117.65;47.83;;;;;;;;;;5063353;28;20040;-82
2024/03/31 11:32:37;;;;;;;61.80;9.98;;;;;;;;;;5062958;28;20044;-80
2024/03/31 11:35:24;;;;;;;49.72;12.25;;;;;;;;;;5062663;28;20029;-85
2024/03/31 11:38:17;;;;;;;74.03;15.68;;;;;;;;;;5061409;28;20043;-86
2024/03/31 11:41:09;;;;;;;63.70;10.93;;;;;;;;;;5061526;28;20047;-83
2024/03/31 11:43:58;;;;;;;47.45;7.85;;;;;;;;;;5056772;28;20120;-83
2024/03/31 11:46:50;;;;;;;74.95;11.50;;;;;;;;;;5058425;28;20033;-85
2024/03/31 11:49:42;;;;;;;54.28;7.90;;;;;;;;;;5063501;28;20040;-83
2024/03/31 11:52:34;;;;;;;53.53;13.80;;;;;;;;;;5062849;28;20029;-83
2024/03/31 11:55:23;;;;;;;107.07;43.47;;;;;;;;;;5062786;28;20043;-84
2024/03/31 11:58:15;;;;;;;108.22;36.70;;;;;;;;;;5062578;28;20409;-86
2024/03/31 12:01:07;;;;;;;68.65;9.80;;;;;;;;;;5058670;28;20048;-85
2024/03/31 12:03:59;;;;;;;68.75;14.63;;;;;;;;;;5063049;28;20076;-84
2024/03/31 12:06:51;;;;;;;53.72;8.43;;;;;;;;;;5057588;28;20048;-86
2024/03/31 12:09:43;;;;;;;64.55;10.85;;;;;;;;;;5060384;28;20033;-82
2024/03/31 12:12:33;;;;;;;87.65;26.98;;;;;;;;;;5062261;28;20044;-84
2024/03/31 12:15:20;;;;;;;109.30;42.53;;;;;;;;;;5063826;28;20040;-84
2024/03/31 12:18:09;;;;;;;65.20;9.68;;;;;;;;;;5064394;28;20433;-84
2024/03/31 12:21:02;;;;;;;88.35;35.50;;;;;;;;;;5061795;28;20028;-84
2024/03/31 12:23:51;;;;;;;56.22;14.30;;;;;;;;;;5061218;28;20048;-85
2024/03/31 12:26:40;;;;;;;48.05;8.80;;;;;;;;;;5061822;28;20035;-86
2024/03/31 12:29:41;;;;;;;70.20;11.73;;;;;;;;;;5064522;28;20029;-81
2024/03/31 12:32:30;;;;;;;62.70;9.52;;;;;;;;;;5067548;28;20044;-84
2024/03/31 12:35:22;;;;;;;73.97;10.13;;;;;;;;;;5045601;28;20411;-84
2024/03/31 12:38:11;;;;;;;61.90;8.15;;;;;;;;;;5051816;28;20048;-83
2024/03/31 12:41:08;;;;;;;58.00;9.00;;;;;;;;;;5042275;28;20038;-84
2024/03/31 12:44:10;;;;;;;65.72;12.05;;;;;;;;;;5059925;28;20044;-84
2024/03/31 12:47:02;;;;;;;130.63;50.22;;;;;;;;;;5057523;28;20048;-84
2024/03/31 12:49:52;;;;;;;114.10;47.30;;;;;;;;;;5054775;28;20044;-84
2024/03/31 12:52:41;;;;;;;79.40;14.68;;;;;;;;;;5063938;28;20059;-83
2024/03/31 12:55:33;;;;;;;60.97;8.60;;;;;;;;;;5060713;28;20040;-84
2024/03/31 12:58:23;;;;;;;60.97;9.05;;;;;;;;;;5062337;28;20048;-83
2024/03/31 13:01:20;;;;;;;68.50;18.35;;;;;;;;;;5049712;28;20052;-83
2024/03/31 13:04:07;;;;;;;114.85;43.72;;;;;;;;;;5053737;28;20048;-81
2024/03/31 13:07:04;;;;;;;87.15;30.08;;;;;;;;;;5055654;28;20043;-83
2024/03/31 13:10:03;;;;;;;91.93;27.65;;;;;;;;;;5050783;28;20032;-82
2024/03/31 13:12:52;;;;;;;98.38;29.15;;;;;;;;;;5053221;28;20040;-81
2024/03/31 13:15:44;;;;;;;65.45;12.77;;;;;;;;;;5046477;28;20035;-81
2024/03/31 13:18:36;;;;;;;117.80;44.35;;;;;;;;;;5055718;28;20045;-83
2024/03/31 13:21:25;;;;;;;83.38;35.80;;;;;;;;;;5052521;28;20048;-84
2024/03/31 13:24:17;;;;;;;84.32;22.45;;;;;;;;;;5059084;28;20043;-84
2024/03/31 13:27:06;;;;;;;134.60;57.78;;;;;;;;;;5058236;28;20044;-83
2024/03/31 13:29:55;;;;;;;122.20;51.35;;;;;;;;;;5056946;28;20540;-84
2024/03/31 13:32:45;;;;;;;99.60;45.00;;;;;;;;;;5057471;28;20040;-83
2024/03/31 13:35:37;;;;;;;102.22;36.80;;;;;;;;;;5069933;28;20043;-83
2024/03/31 13:38:29;;;;;;;59.58;9.70;;;;;;;;;;5049791;28;20056;-84
2024/03/31 13:41:21;;;;;;;101.57;44.38;;;;;;;;;;5059711;28;20464;-82
2024/03/31 13:44:13;;;;;;;71.63;20.75;;;;;;;;;;5058644;28;20051;-82
2024/03/31 13:47:05;;;;;;;109.95;52.53;;;;;;;;;;5054778;28;20402;-85
2024/03/31 13:49:52;;;;;;;101.22;44.22;;;;;;;;;;5066846;28;20036;-84
2024/03/31 13:52:42;;;;;;;78.63;12.77;;;;;;;;;;5070443;28;20040;-82
2024/03/31 13:55:33;;;;;;;63.88;13.27;;;;;;;;;;5051730;28;20048;-82
2024/03/31 13:58:25;;;;;;;80.78;28.58;;;;;;;;;;5054532;28;20045;-81
2024/03/31 14:01:17;;;;;;;88.25;34.15;;;;;;;;;;5056916;28;20052;-81
2024/03/31 14:04:06;;;;;;;68.15;12.90;;;;;;;;;;5056614;28;20047;-83
2024/03/31 14:07:01;;;;;;;93.80;27.50;;;;;;;;;;5062328;28;20040;-82
2024/03/31 14:09:53;;;;;;;71.05;16.65;;;;;;;;;;5055193;28;20044;-81
2024/03/31 14:12:45;;;;;;;57.05;14.73;;;;;;;;;;5063665;28;20510;-82
2024/03/31 14:15:37;;;;;;;81.03;28.17;;;;;;;;;;5064132;28;20608;-82
2024/03/31 14:18:26;;;;;;;68.53;17.52;;;;;;;;;;5064749;28;20059;-83
2024/03/31 14:21:18;;;;;;;64.47;14.25;;;;;;;;;;5060729;28;20409;-81
2024/03/31 14:24:09;;;;;;;53.88;9.82;;;;;;;;;;5061402;28;20060;-85
2024/03/31 14:27:02;;;;;;;62.25;10.85;;;;;;;;;;5058557;28;20044;-81
2024/03/31 14:29:54;;;;;;;57.88;10.82;;;;;;;;;;5054141;28;20044;-83
2024/03/31 14:32:43;;;;;;;56.15;12.48;;;;;;;;;;5054222;28;20394;-82
2024/03/31 14:35:35;;;;;;;72.40;12.05;;;;;;;;;;5057075;28;20051;-80
2024/03/31 14:38:25;;;;;;;63.70;9.07;;;;;;;;;;5058615;28;20043;-82
2024/03/31 14:41:16;;;;;;;97.47;44.65;;;;;;;;;;5055884;28;20493;-82
2024/03/31 14:44:08;;;;;;;109.32;58.33;;;;;;;;;;5062141;28;20048;-80
2024/03/31 14:46:58;;;;;;;47.90;10.32;;;;;;;;;;5072506;28;20047;-81
2024/03/31 14:49:45;;;;;;;62.13;9.65;;;;;;;;;;5064962;28;20040;-89
2024/03/31 14:52:39;;;;;;;66.03;13.43;;;;;;;;;;5060291;28;20049;-82
2024/03/31 14:55:31;;;;;;;89.03;34.08;;;;;;;;;;5057428;28;20040;-81
2024/03/31 14:58:23;;;;;;;102.50;44.95;;;;;;;;;;5062052;28;20048;-83
2024/03/31 15:01:15;;;;;;;73.03;24.40;;;;;;;;;;5059366;28;20056;-83
2024/03/31 15:04:06;;;;;;;47.35;8.23;;;;;;;;;;5054348;28;20047;-79
2024/03/31 15:06:59;;;;;;;53.85;10.13;;;;;;;;;;5055058;28;20036;-80
2024/03/31 15:09:49;;;;;;;62.45;14.30;;;;;;;;;;5055144;28;20040;-80
2024/03/31 15:12:41;;;;;;;70.10;11.43;;;;;;;;;;5051160;28;20036;-82
2024/03/31 15:15:31;;;;;;;60.92;14.50;;;;;;;;;;5059210;28;20052;-83
2024/03/31 15:18:15;;;;;;;52.13;15.35;;;;;;;;;;5053953;28;20044;-80
2024/03/31 15:21:07;;;;;;;64.15;21.88;;;;;;;;;;5056193;28;20536;-85
2024/03/31 15:23:57;;;;;;;58.78;11.18;;;;;;;;;;5066779;28;20056;-83
2024/03/31 15:26:49;;;;;;;55.40;10.68;;;;;;;;;;5060466;28;20040;-80
2024/03/31 15:29:41;;;;;;;64.70;14.15;;;;;;;;;;5067102;28;20040;-82
2024/03/31 15:32:30;;;;;;;76.38;20.83;;;;;;;;;;5067801;28;20579;-82
2024/03/31 15:35:22;;;;;;;72.05;20.40;;;;;;;;;;5051041;28;20040;-82
2024/03/31 15:38:14;;;;;;;52.20;14.48;;;;;;;;;;5064345;28;20048;-83
2024/03/31 15:41:06;;;;;;;59.42;12.43;;;;;;;;;;5058400;28;20056;-81
2024/03/31 15:43:58;;;;;;;77.78;19.00;;;;;;;;;;5050908;28;20043;-84
2024/03/31 15:46:50;;;;;;;60.65;15.07;;;;;;;;;;5064028;28;20048;-83
2024/03/31 15:49:40;;;;;;;89.78;34.45;;;;;;;;;;5055904;28;20040;-83
2024/03/31 15:52:24;;;;;;;76.55;32.08;;;;;;;;;;5060380;28;20068;-80
2024/03/31 15:55:16;;;;;;;99.88;40.45;;;;;;;;;;5070143;28;20036;-83
2024/03/31 15:58:13;;;;;;;44.35;14.70;;;;;;;;;;5063274;28;20048;-81
2024/03/31 16:01:00;;;;;;;53.88;10.88;;;;;;;;;;5066741;28;20048;-83
2024/03/31 16:03:52;;;;;;;54.22;11.07;;;;;;;;;;5065834;28;20044;-82
2024/03/31 16:06:41;;;;;;;62.45;11.77;;;;;;;;;;5067495;28;20039;-83
2024/03/31 16:09:33;;;;;;;56.00;8.40;;;;;;;;;;5054437;28;20044;-83
2024/03/31 16:12:25;;;;;;;92.55;34.40;;;;;;;;;;5060677;28;20066;-83
2024/03/31 16:15:17;;;;;;;93.18;37.78;;;;;;;;;;5057048;28;20055;-81
2024/03/31 16:18:04;;;;;;;108.18;46.40;;;;;;;;;;5060648;28;20044;-83
2024/03/31 16:20:57;;;;;;;91.68;34.55;;;;;;;;;;5059083;28;20040;-84
2024/03/31 16:23:49;;;;;;;115.50;52.05;;;;;;;;;;5071785;28;20035;-83
2024/03/31 16:26:38;;;;;;;102.00;34.30;;;;;;;;;;5071025;28;20051;-84
2024/03/31 16:29:30;;;;;;;104.13;45.05;;;;;;;;;;5056372;28;20040;-85
2024/03/31 16:32:22;;;;;;;75.82;22.48;;;;;;;;;;5061156;28;20056;-85
2024/03/31 16:35:19;;;;;;;53.67;8.23;;;;;;;;;;5062863;28;20048;-85
2024/03/31 16:38:08;;;;;;;86.90;34.13;;;;;;;;;;5065418;28;20414;-90
2024/03/31 16:40:58;;;;;;;126.18;46.95;;;;;;;;;;5058521;28;20425;-85
2024/03/31 16:43:49;;;;;;;144.00;57.72;;;;;;;;;;5060039;28;20505;-84
2024/03/31 16:46:38;;;;;;;110.22;44.40;;;;;;;;;;5056818;28;20052;-85